createdAt,value
2022-09-26T00:01:30.418Z,3.42
2022-09-26T00:04:04.069Z,3.53
2022-09-26T00:06:31.374Z,3.03
2022-09-26T00:08:59.122Z,3.55
2022-09-26T00:11:32.478Z,2.75
2022-09-26T00:14:03.310Z,4.28
2022-09-26T00:16:30.604Z,2.55
2022-09-26T00:19:01.850Z,3.70
2022-09-26T00:21:30.575Z,2.83
2022-09-26T00:24:00.445Z,4.32
2022-09-26T00:26:29.297Z,3.40
2022-09-26T00:28:57.340Z,2.13
2022-09-26T00:31:30.731Z,3.60
2022-09-26T00:33:58.577Z,2.67
2022-09-26T00:36:36.947Z,3.70
2022-09-26T00:39:06.855Z,2.92
2022-09-26T00:41:34.599Z,2.33
2022-09-26T00:44:02.378Z,3.03
2022-09-26T00:46:47.272Z,3.03
2022-09-26T00:49:31.748Z,3.35
2022-09-26T00:52:20.930Z,2.75
2022-09-26T00:54:51.788Z,3.10
2022-09-26T00:57:48.742Z,3.20
2022-09-26T01:00:16.113Z,4.45
2022-09-26T01:02:45.498Z,2.47
2022-09-26T01:05:16.417Z,2.33
2022-09-26T01:07:44.225Z,3.83
2022-09-26T01:10:12.436Z,4.22
2022-09-26T01:12:39.647Z,2.45
2022-09-26T01:15:09.304Z,2.85
2022-09-26T01:17:41.385Z,1.87
2022-09-26T01:20:52.222Z,2.72
2022-09-26T01:26:24.419Z,2.92
2022-09-26T01:29:30.552Z,3.42
2022-09-26T01:32:36.892Z,2.58
2022-09-26T01:35:25.620Z,3.38
2022-09-26T01:37:59.752Z,4.60
2022-09-26T01:40:51.314Z,1.92
2022-09-26T01:43:21.452Z,2.88
2022-09-26T01:46:01.864Z,2.42
2022-09-26T01:48:34.029Z,3.47
2022-09-26T01:51:24.328Z,2.78
2022-09-26T01:54:04.592Z,2.08
2022-09-26T01:56:36.988Z,2.40
2022-09-26T01:59:47.143Z,2.53
2022-09-26T02:02:20.784Z,2.35
2022-09-26T02:04:54.093Z,2.78
2022-09-26T02:07:30.090Z,3.00
2022-09-26T02:10:14.193Z,3.15
2022-09-26T02:12:46.149Z,2.50
2022-09-26T02:15:18.100Z,1.90
2022-09-26T02:17:50.716Z,3.17
2022-09-26T02:20:38.472Z,3.85
2022-09-26T02:23:05.938Z,2.92
2022-09-26T02:25:34.819Z,3.92
2022-09-26T02:28:03.368Z,3.13
2022-09-26T02:30:30.579Z,4.65
2022-09-26T02:32:57.800Z,3.08
2022-09-26T02:35:44.081Z,2.47
2022-09-26T02:38:11.343Z,3.63
2022-09-26T02:40:51.467Z,4.30
2022-09-26T02:43:44.912Z,3.65
2022-09-26T02:46:24.854Z,2.88
2022-09-26T02:49:26.450Z,4.70
2022-09-26T02:52:12.277Z,3.72
2022-09-26T02:54:58.851Z,3.60
2022-09-26T02:57:46.009Z,2.40
2022-09-26T03:00:24.075Z,2.83
2022-09-26T03:03:20.099Z,3.83
2022-09-26T03:05:51.906Z,3.53
2022-09-26T03:08:24.700Z,3.53
2022-09-26T03:10:54.638Z,3.30
2022-09-26T03:13:24.371Z,2.05
2022-09-26T03:15:55.156Z,3.42
2022-09-26T03:18:26.447Z,3.00
2022-09-26T03:20:56.649Z,2.58
2022-09-26T03:23:27.392Z,4.30
2022-09-26T03:26:14.311Z,2.97
2022-09-26T03:28:41.718Z,2.33
2022-09-26T03:31:08.934Z,2.80
2022-09-26T03:33:36.174Z,3.42
2022-09-26T03:36:12.449Z,3.25
2022-09-26T03:38:39.728Z,3.53
2022-09-26T03:41:07.782Z,2.58
2022-09-26T03:43:35.205Z,4.72
2022-09-26T03:46:04.671Z,3.05
2022-09-26T03:48:32.488Z,3.38
2022-09-26T03:51:08.052Z,2.58
2022-09-26T03:53:36.974Z,2.95
2022-09-26T03:56:09.449Z,3.72
2022-09-26T03:58:37.077Z,2.95
2022-09-26T04:01:06.686Z,3.95
2022-09-26T04:03:35.665Z,3.15
2022-09-26T04:06:03.601Z,2.95
2022-09-26T04:08:31.631Z,2.63
2022-09-26T04:11:03.533Z,2.70
2022-09-26T04:13:50.629Z,2.97
2022-09-26T04:16:20.347Z,3.65
2022-09-26T04:18:48.475Z,2.58
2022-09-26T04:21:16.377Z,3.35
2022-09-26T04:23:44.359Z,3.08
2022-09-26T04:26:18.683Z,3.25
2022-09-26T04:28:52.422Z,3.00
2022-09-26T04:31:21.745Z,3.60
2022-09-26T04:33:49.332Z,2.65
2022-09-26T04:36:17.418Z,2.25
2022-09-26T04:38:44.876Z,3.88
2022-09-26T04:41:17.666Z,2.72
2022-09-26T04:43:45.267Z,3.72
2022-09-26T04:46:21.023Z,3.10
2022-09-26T04:48:50.820Z,3.45
2022-09-26T04:51:20.038Z,2.85
2022-09-26T04:53:48.220Z,4.05
2022-09-26T04:56:16.260Z,21.83
2022-09-26T04:58:44.731Z,51.67
2022-09-26T05:01:14.323Z,88.40
2022-09-26T05:03:42.159Z,64.83
2022-09-26T05:06:13.803Z,57.33
2022-09-26T05:08:47.012Z,10.13
2022-09-26T05:11:16.365Z,4.38
2022-09-26T05:13:43.955Z,4.38
2022-09-26T05:16:13.431Z,3.78
2022-09-26T05:18:40.802Z,3.85
2022-09-26T05:21:08.681Z,4.03
2022-09-26T05:23:55.730Z,3.90
2022-09-26T05:26:24.873Z,3.05
2022-09-26T05:28:55.517Z,3.85
2022-09-26T05:33:52.483Z,3.67
2022-09-26T05:36:20.046Z,3.28
2022-09-26T05:38:47.265Z,2.88
2022-09-26T05:41:15.236Z,3.40
2022-09-26T05:43:42.695Z,3.22
2022-09-26T05:46:12.013Z,2.78
2022-09-26T05:48:40.300Z,3.33
2022-09-26T05:51:15.798Z,4.35
2022-09-26T05:53:45.546Z,3.75
2022-09-26T05:56:18.567Z,2.93
2022-09-26T05:58:47.023Z,3.05
2022-09-26T06:01:16.785Z,3.65
2022-09-26T06:03:46.163Z,3.78
2022-09-26T06:06:16.213Z,3.50
2022-09-26T06:08:44.910Z,3.65
2022-09-26T06:11:18.037Z,3.42
2022-09-26T06:13:46.775Z,3.72
2022-09-26T06:16:18.075Z,5.07
2022-09-26T06:18:47.025Z,4.18
2022-09-26T06:21:16.181Z,3.28
2022-09-26T06:23:43.837Z,3.72
2022-09-26T06:26:16.213Z,4.13
2022-09-26T06:28:43.414Z,4.05
2022-09-26T06:31:15.682Z,3.88
2022-09-26T06:33:43.378Z,4.30
2022-09-26T06:36:12.141Z,3.95
2022-09-26T06:38:39.504Z,4.10
2022-09-26T06:41:07.634Z,4.47
2022-09-26T06:43:35.327Z,5.97
2022-09-26T06:46:02.574Z,3.55
2022-09-26T06:48:29.792Z,4.85
2022-09-26T06:51:00.694Z,3.67
2022-09-26T06:53:28.463Z,4.03
2022-09-26T06:55:55.615Z,4.22
2022-09-26T06:58:22.785Z,3.90
2022-09-26T07:00:50.258Z,4.80
2022-09-26T07:03:17.571Z,5.30
2022-09-26T07:05:45.476Z,4.50
2022-09-26T07:08:12.800Z,5.00
2022-09-26T07:10:39.961Z,3.97
2022-09-26T07:13:09.689Z,4.43
2022-09-26T07:15:37.699Z,5.00
2022-09-26T07:18:06.674Z,4.25
2022-09-26T07:20:37.864Z,3.80
2022-09-26T07:23:06.359Z,5.57
2022-09-26T07:25:33.726Z,4.65
2022-09-26T07:28:02.169Z,5.38
2022-09-26T07:30:29.639Z,4.50
2022-09-26T07:33:03.965Z,4.30
2022-09-26T07:35:34.083Z,5.35
2022-09-26T07:38:01.592Z,4.63
2022-09-26T07:40:28.865Z,4.30
2022-09-26T07:43:19.954Z,4.38
2022-09-26T07:46:09.487Z,6.00
2022-09-26T07:48:55.070Z,4.72
2022-09-26T07:51:23.439Z,5.88
2022-09-26T07:53:50.829Z,5.70
2022-09-26T07:56:18.128Z,4.82
2022-09-26T07:58:46.604Z,4.53
2022-09-26T08:01:16.245Z,5.03
2022-09-26T08:03:48.318Z,4.97
2022-09-26T08:06:20.370Z,5.13
2022-09-26T08:08:48.550Z,5.53
2022-09-26T08:11:18.277Z,4.55
2022-09-26T08:13:46.740Z,4.17
2022-09-26T08:16:23.842Z,4.93
2022-09-26T08:18:51.910Z,6.13
2022-09-26T08:21:19.613Z,4.63
2022-09-26T08:23:49.554Z,4.05
2022-09-26T08:26:21.614Z,4.15
2022-09-26T08:28:48.875Z,4.43
2022-09-26T08:31:16.771Z,4.70
2022-09-26T08:33:44.374Z,4.55
2022-09-26T08:36:13.369Z,4.30
2022-09-26T08:38:40.752Z,3.85
2022-09-26T08:41:46.387Z,3.80
2022-09-26T08:44:31.631Z,5.00
2022-09-26T08:47:06.169Z,3.90
2022-09-26T08:50:18.609Z,4.88
2022-09-26T08:52:57.114Z,3.60
2022-09-26T08:55:35.355Z,3.60
2022-09-26T08:58:15.514Z,3.58
2022-09-26T09:00:42.811Z,3.17
2022-09-26T09:03:30.669Z,3.67
2022-09-26T09:06:14.586Z,2.55
2022-09-26T09:08:44.034Z,3.33
2022-09-26T09:11:43.429Z,2.38
2022-09-26T09:14:32.157Z,2.05
2022-09-26T09:17:15.518Z,2.85
2022-09-26T09:20:06.997Z,3.03
2022-09-26T09:23:01.198Z,1.90
2022-09-26T09:29:19.582Z,2.13
2022-09-26T09:31:48.027Z,2.35
2022-09-26T09:34:29.341Z,2.08
2022-09-26T09:37:01.592Z,4.47
2022-09-26T09:39:34.952Z,2.40
2022-09-26T09:42:31.078Z,3.20
2022-09-26T09:45:15.779Z,2.13
2022-09-26T09:47:43.293Z,2.70
2022-09-26T09:50:54.184Z,1.95
2022-09-26T09:53:52.231Z,4.18
2022-09-26T09:56:29.376Z,1.83
2022-09-26T09:59:15.005Z,2.47
2022-09-26T10:01:45.854Z,1.77
2022-09-26T10:04:41.055Z,2.60
2022-09-26T10:07:09.152Z,1.90
2022-09-26T10:09:41.622Z,1.98
2022-09-26T10:12:21.143Z,1.58
2022-09-26T10:15:02.458Z,1.40
2022-09-26T10:17:29.825Z,2.00
2022-09-26T10:19:57.478Z,2.55
2022-09-26T10:22:45.221Z,1.58
2022-09-26T10:25:21.840Z,1.90
2022-09-26T10:27:55.437Z,2.03
2022-09-26T10:30:32.246Z,1.83
2022-09-26T10:33:01.594Z,1.55
2022-09-26T10:35:43.193Z,2.38
2022-09-26T10:38:25.053Z,2.33
2022-09-26T10:40:55.602Z,1.92
2022-09-26T10:46:10.712Z,1.88
2022-09-26T10:48:59.935Z,1.52
2022-09-26T10:51:32.237Z,1.52
2022-09-26T10:54:11.654Z,2.70
2022-09-26T10:56:43.546Z,1.80
2022-09-26T10:59:17.628Z,1.65
2022-09-26T11:01:56.051Z,1.60
2022-09-26T11:04:47.687Z,2.08
2022-09-26T11:07:30.501Z,2.25
2022-09-26T11:10:02.271Z,1.52
2022-09-26T11:12:31.858Z,3.33
2022-09-26T11:15:11.270Z,1.73
2022-09-26T11:17:47.611Z,1.73
2022-09-26T11:20:32.869Z,1.55
2022-09-26T11:23:09.739Z,2.10
2022-09-26T11:25:52.275Z,1.50
2022-09-26T11:28:31.250Z,1.67
2022-09-26T11:31:05.757Z,1.75
2022-09-26T11:33:33.935Z,3.33
2022-09-26T11:36:49.490Z,1.63
2022-09-26T11:39:50.682Z,2.17
2022-09-26T11:42:55.143Z,2.28
2022-09-26T11:45:30.441Z,1.60
2022-09-26T11:48:33.807Z,1.55
2022-09-26T11:51:14.465Z,1.80
2022-09-26T11:56:39.308Z,1.75
2022-09-26T11:59:45.905Z,2.13
2022-09-26T12:02:32.942Z,2.53
2022-09-26T12:05:27.745Z,1.33
2022-09-26T12:08:11.997Z,1.35
2022-09-26T12:10:50.937Z,1.65
2022-09-26T12:13:38.310Z,2.15
2022-09-26T12:16:22.500Z,2.97
2022-09-26T12:19:27.886Z,2.72
2022-09-26T12:22:36.287Z,1.63
2022-09-26T12:25:27.013Z,2.42
2022-09-26T12:30:42.909Z,1.90
2022-09-26T12:33:13.207Z,2.65
2022-09-26T12:35:45.424Z,2.83
2022-09-26T12:38:33.066Z,1.98
2022-09-26T12:41:33.886Z,2.13
2022-09-26T12:44:31.302Z,3.53
2022-09-26T12:47:08.184Z,1.88
2022-09-26T12:50:19.872Z,2.38
2022-09-26T12:53:31.801Z,1.63
2022-09-26T12:56:22.401Z,1.92
2022-09-26T12:59:18.215Z,2.33
2022-09-26T13:02:06.834Z,2.42
2022-09-26T13:05:01.277Z,3.65
2022-09-26T13:07:31.535Z,5.47
2022-09-26T13:10:07.301Z,3.30
2022-09-26T13:13:02.864Z,2.58
2022-09-26T13:15:44.023Z,2.58
2022-09-26T13:18:26.753Z,3.30
2022-09-26T13:21:03.301Z,2.78
2022-09-26T13:23:47.239Z,3.53
2022-09-26T13:26:26.083Z,2.60
2022-09-26T13:29:31.075Z,3.22
2022-09-26T13:32:10.368Z,2.17
2022-09-26T13:34:45.583Z,2.35
2022-09-26T13:37:42.376Z,2.45
2022-09-26T13:40:54.103Z,3.25
2022-09-26T13:43:39.927Z,2.80
2022-09-26T13:46:45.889Z,3.00
2022-09-26T13:49:35.068Z,2.70
2022-09-26T13:52:15.271Z,2.65
2022-09-26T13:54:45.515Z,2.60
2022-09-26T13:57:50.280Z,4.05
2022-09-26T14:00:26.945Z,2.90
2022-09-26T14:03:21.971Z,4.00
2022-09-26T14:05:51.880Z,2.92
2022-09-26T14:08:43.585Z,2.22
2022-09-26T14:11:34.709Z,2.72
2022-09-26T14:14:18.397Z,2.90
2022-09-26T14:16:46.534Z,3.13
2022-09-26T14:19:36.444Z,2.72
2022-09-26T14:22:19.127Z,3.42
2022-09-26T14:24:47.937Z,2.28
2022-09-26T14:27:42.068Z,3.05
2022-09-26T14:30:30.438Z,3.45
2022-09-26T14:33:04.864Z,3.00
2022-09-26T14:35:35.145Z,3.40
2022-09-26T14:38:21.909Z,3.55
2022-09-26T14:40:58.303Z,3.88
2022-09-26T14:43:29.298Z,4.75
2022-09-26T14:46:23.199Z,2.85
2022-09-26T14:48:58.573Z,3.00
2022-09-26T14:51:30.833Z,3.25
2022-09-26T14:54:23.237Z,3.35
2022-09-26T14:57:00.048Z,3.85
2022-09-26T14:59:41.865Z,3.03
2022-09-26T15:02:15.454Z,4.18
2022-09-26T15:04:46.659Z,4.47
2022-09-26T15:07:25.195Z,3.42
2022-09-26T15:10:02.453Z,4.00
2022-09-26T15:12:29.816Z,3.55
2022-09-26T15:15:07.900Z,2.38
2022-09-26T15:17:41.887Z,3.13
2022-09-26T15:20:15.273Z,3.22
2022-09-26T15:22:43.326Z,2.78
2022-09-26T15:25:26.355Z,3.42
2022-09-26T15:27:55.059Z,2.95
2022-09-26T15:30:24.944Z,3.88
2022-09-26T15:32:59.720Z,4.43
2022-09-26T15:35:27.562Z,3.95
2022-09-26T15:38:01.756Z,3.67
2022-09-26T15:40:31.150Z,5.47
2022-09-26T15:43:10.343Z,3.50
2022-09-26T15:45:58.687Z,2.85
2022-09-26T15:48:26.058Z,3.33
2022-09-26T15:51:06.061Z,2.90
2022-09-26T15:53:51.765Z,3.30
2022-09-26T15:56:21.625Z,3.28
2022-09-26T15:59:02.758Z,3.88
2022-09-26T16:01:31.769Z,3.25
2022-09-26T16:04:01.036Z,3.45
2022-09-26T16:06:37.649Z,3.92
2022-09-26T16:09:22.947Z,3.08
2022-09-26T16:11:51.771Z,2.80
2022-09-26T16:14:25.835Z,3.70
2022-09-26T16:16:56.372Z,3.08
2022-09-26T16:22:45.905Z,3.43
2022-09-26T16:25:16.126Z,3.47
2022-09-26T16:27:43.773Z,2.75
2022-09-26T16:30:25.911Z,4.15
2022-09-26T16:33:08.333Z,3.90
2022-09-26T16:35:37.718Z,2.15
2022-09-26T16:38:30.392Z,3.45
2022-09-26T16:41:36.257Z,3.00
2022-09-26T16:44:27.591Z,4.03
2022-09-26T16:46:59.070Z,3.13
2022-09-26T16:49:29.047Z,2.67
2022-09-26T16:52:11.204Z,3.92
2022-09-26T16:54:38.440Z,3.08
2022-09-26T16:57:06.232Z,3.38
2022-09-26T16:59:33.568Z,4.50
2022-09-26T17:02:03.186Z,3.58
2022-09-26T17:04:32.117Z,4.93
2022-09-26T17:07:00.535Z,6.63
2022-09-26T17:09:33.106Z,3.45
2022-09-26T17:12:08.594Z,3.75
2022-09-26T17:14:40.767Z,3.38
2022-09-26T17:17:22.796Z,3.53
2022-09-26T17:19:56.832Z,5.47
2022-09-26T17:22:26.811Z,4.05
2022-09-26T17:24:55.613Z,3.55
2022-09-26T17:27:31.454Z,4.53
2022-09-26T17:30:05.493Z,4.82
2022-09-26T17:32:37.153Z,3.67
2022-09-26T17:35:25.214Z,4.00
2022-09-26T17:37:55.796Z,3.83
2022-09-26T17:40:26.510Z,4.65
2022-09-26T17:45:35.004Z,4.05
2022-09-26T17:48:13.351Z,3.42
2022-09-26T17:50:43.487Z,3.00
2022-09-26T17:53:17.494Z,3.47
2022-09-26T17:55:44.586Z,4.70
2022-09-26T17:58:12.431Z,3.80
2022-09-26T18:00:41.403Z,3.63
2022-09-26T18:03:19.211Z,5.32
2022-09-26T18:05:47.046Z,4.47
2022-09-26T18:08:17.620Z,3.92
2022-09-26T18:13:22.884Z,4.22
2022-09-26T18:15:52.544Z,4.28
2022-09-26T18:18:22.378Z,4.47
2022-09-26T18:20:50.314Z,3.87
2022-09-26T18:23:22.208Z,4.63
2022-09-26T18:25:51.763Z,4.10
2022-09-26T18:28:22.406Z,4.22
2022-09-26T18:33:28.045Z,3.72
2022-09-26T18:35:55.531Z,4.80
2022-09-26T18:38:22.743Z,4.93
2022-09-26T18:40:55.405Z,6.13
2022-09-26T18:43:28.207Z,7.88
2022-09-26T18:45:57.719Z,12.20
2022-09-26T18:48:32.978Z,9.52
2022-09-26T18:51:00.727Z,9.05
2022-09-26T18:53:30.609Z,6.78
2022-09-26T18:56:16.127Z,6.45
2022-09-26T18:58:44.181Z,6.35
2022-09-26T19:01:23.497Z,4.40
2022-09-26T19:03:51.107Z,5.15
2022-09-26T19:06:39.217Z,4.45
2022-09-26T19:09:13.256Z,4.53
2022-09-26T19:11:40.514Z,5.55
2022-09-26T19:14:15.825Z,4.22
2022-09-26T19:16:44.664Z,4.22
2022-09-26T19:19:12.157Z,3.80
2022-09-26T19:21:46.576Z,4.90
2022-09-26T19:24:28.578Z,4.15
2022-09-26T19:26:59.358Z,3.50
2022-09-26T19:29:33.229Z,3.92
2022-09-26T19:32:00.776Z,3.72
2022-09-26T19:34:32.534Z,3.17
2022-09-26T19:37:03.291Z,5.05
2022-09-26T19:39:31.969Z,4.45
2022-09-26T19:41:59.216Z,6.00
2022-09-26T19:44:26.410Z,4.25
2022-09-26T19:46:53.659Z,3.47
2022-09-26T19:49:23.628Z,4.57
2022-09-26T19:51:50.850Z,4.18
2022-09-26T19:54:19.827Z,4.20
2022-09-26T19:56:47.747Z,5.00
2022-09-26T19:59:16.548Z,7.18
2022-09-26T20:01:46.592Z,4.20
2022-09-26T20:04:16.694Z,4.57
2022-09-26T20:06:43.960Z,5.40
2022-09-26T20:09:16.551Z,5.90
2022-09-26T20:11:43.844Z,4.40
2022-09-26T20:14:26.321Z,5.70
2022-09-26T20:16:56.506Z,4.18
2022-09-26T20:19:37.737Z,3.67
2022-09-26T20:22:08.019Z,4.28
2022-09-26T20:24:38.137Z,3.83
2022-09-26T20:27:07.781Z,4.70
2022-09-26T20:29:55.339Z,5.57
2022-09-26T20:32:22.595Z,4.55
2022-09-26T20:34:50.446Z,5.57
2022-09-26T20:37:18.315Z,5.10
2022-09-26T20:39:47.338Z,5.03
2022-09-26T20:42:18.835Z,5.32
2022-09-26T20:44:48.897Z,6.65
2022-09-26T20:47:20.110Z,5.32
2022-09-26T20:49:55.809Z,5.95
2022-09-26T20:52:25.858Z,6.53
2022-09-26T20:54:54.233Z,5.80
2022-09-26T20:57:22.516Z,5.32
2022-09-26T20:59:50.831Z,4.97
2022-09-26T21:02:20.835Z,6.85
2022-09-26T21:04:48.027Z,5.90
2022-09-26T21:07:16.495Z,5.10
2022-09-26T21:09:43.776Z,5.18
2022-09-26T21:12:16.092Z,6.13
2022-09-26T21:14:43.799Z,4.47
2022-09-26T21:17:29.343Z,4.03
2022-09-26T21:19:56.823Z,5.03
2022-09-26T21:22:26.992Z,4.07
2022-09-26T21:24:54.511Z,2.65
2022-09-26T21:27:21.749Z,4.32
2022-09-26T21:29:48.841Z,4.05
2022-09-26T21:32:21.329Z,4.03
2022-09-26T21:34:59.701Z,3.90
2022-09-26T21:37:26.805Z,4.93
2022-09-26T21:39:54.309Z,4.93
2022-09-26T21:42:21.685Z,4.60
2022-09-26T21:44:55.196Z,4.82
2022-09-26T21:47:22.668Z,3.95
2022-09-26T21:49:49.893Z,6.07
2022-09-26T21:52:22.484Z,3.67
2022-09-26T21:54:50.489Z,3.58
2022-09-26T21:57:23.744Z,3.63
2022-09-26T21:59:52.465Z,3.65
2022-09-26T22:02:20.810Z,3.55
2022-09-26T22:04:48.156Z,4.68
2022-09-26T22:07:15.343Z,2.90
2022-09-26T22:09:42.537Z,3.45
2022-09-26T22:12:09.816Z,5.30
2022-09-26T22:14:37.006Z,3.58
2022-09-26T22:17:04.288Z,3.47
2022-09-26T22:19:33.690Z,3.63
2022-09-26T22:22:01.675Z,4.32
2022-09-26T22:24:29.049Z,3.53
2022-09-26T22:26:56.445Z,4.07
2022-09-26T22:29:23.692Z,5.05
2022-09-26T22:31:51.160Z,3.50
2022-09-26T22:34:18.745Z,5.40
2022-09-26T22:36:46.257Z,4.00
2022-09-26T22:39:13.556Z,4.38
2022-09-26T22:41:40.767Z,4.35
2022-09-26T22:44:08.363Z,4.03
2022-09-26T22:46:36.064Z,3.95
2022-09-26T22:49:03.343Z,4.43
2022-09-26T22:51:30.683Z,3.50
2022-09-26T22:53:57.948Z,3.50
2022-09-26T22:56:25.146Z,3.35
2022-09-26T22:58:53.328Z,4.15
2022-09-26T23:01:27.463Z,5.25
2022-09-26T23:03:55.560Z,3.78
2022-09-26T23:06:23.964Z,4.80
2022-09-26T23:08:51.672Z,4.38
2022-09-26T23:11:19.234Z,4.95
2022-09-26T23:13:47.010Z,3.53
2022-09-26T23:16:17.437Z,3.72
2022-09-26T23:21:15.076Z,6.45
2022-09-26T23:23:45.242Z,4.53
2022-09-26T23:26:16.800Z,5.55
2022-09-26T23:28:44.063Z,4.88
2022-09-26T23:31:11.790Z,4.35
2022-09-26T23:33:39.352Z,3.45
2022-09-26T23:36:07.763Z,3.92
2022-09-26T23:38:37.401Z,5.40
2022-09-26T23:41:06.042Z,4.25
2022-09-26T23:43:33.491Z,4.20
2022-09-26T23:46:00.943Z,4.53
2022-09-26T23:48:28.243Z,4.35
2022-09-26T23:50:56.604Z,3.65
2022-09-26T23:53:24.547Z,5.40
2022-09-26T23:55:52.180Z,4.22
2022-09-26T23:58:19.768Z,4.45
